sensor_id;sensor_type;location;lat;lon;timestamp;P1;durP1;ratioP1;P2;durP2;ratioP2
55672;SDS011;41554;45.366;20.400;2023-04-03T00:01:19;9.68;;;5.90;;
55672;SDS011;41554;45.366;20.400;2023-04-03T00:03:45;6.20;;;4.35;;
55672;SDS011;41554;45.366;20.400;2023-04-03T00:06:12;8.70;;;5.38;;
55672;SDS011;41554;45.366;20.400;2023-04-03T00:08:38;5.32;;;4.30;;
55672;SDS011;41554;45.366;20.400;2023-04-03T00:11:05;5.72;;;4.45;;
55672;SDS011;41554;45.366;20.400;2023-04-03T00:13:32;9.02;;;5.28;;
55672;SDS011;41554;45.366;20.400;2023-04-03T00:15:58;9.82;;;4.13;;
55672;SDS011;41554;45.366;20.400;2023-04-03T00:18:24;5.28;;;4.18;;
55672;SDS011;41554;45.366;20.400;2023-04-03T00:20:50;5.95;;;4.82;;
55672;SDS011;41554;45.366;20.400;2023-04-03T00:23:16;6.85;;;5.63;;
55672;SDS011;41554;45.366;20.400;2023-04-03T00:25:43;4.90;;;3.72;;
55672;SDS011;41554;45.366;20.400;2023-04-03T00:28:09;5.53;;;4.15;;
55672;SDS011;41554;45.366;20.400;2023-04-03T00:30:35;7.00;;;5.38;;
55672;SDS011;41554;45.366;20.400;2023-04-03T00:33:01;7.78;;;5.03;;
55672;SDS011;41554;45.366;20.400;2023-04-03T00:35:27;7.43;;;4.85;;
55672;SDS011;41554;45.366;20.400;2023-04-03T00:37:54;15.52;;;4.82;;
55672;SDS011;41554;45.366;20.400;2023-04-03T00:40:21;6.35;;;4.63;;
55672;SDS011;41554;45.366;20.400;2023-04-03T00:42:48;9.27;;;5.45;;
55672;SDS011;41554;45.366;20.400;2023-04-03T00:47:44;6.22;;;4.47;;
55672;SDS011;41554;45.366;20.400;2023-04-03T00:50:10;6.85;;;5.07;;
55672;SDS011;41554;45.366;20.400;2023-04-03T00:52:36;7.20;;;5.38;;
55672;SDS011;41554;45.366;20.400;2023-04-03T00:55:04;6.18;;;4.53;;
55672;SDS011;41554;45.366;20.400;2023-04-03T00:57:31;7.70;;;4.53;;
55672;SDS011;41554;45.366;20.400;2023-04-03T00:59:59;6.15;;;4.63;;
55672;SDS011;41554;45.366;20.400;2023-04-03T01:02:27;6.80;;;4.50;;
55672;SDS011;41554;45.366;20.400;2023-04-03T01:04:53;5.47;;;4.65;;
55672;SDS011;41554;45.366;20.400;2023-04-03T01:07:23;6.35;;;4.80;;
55672;SDS011;41554;45.366;20.400;2023-04-03T01:09:51;6.13;;;4.18;;
55672;SDS011;41554;45.366;20.400;2023-04-03T01:12:20;4.85;;;3.75;;
55672;SDS011;41554;45.366;20.400;2023-04-03T01:14:47;7.30;;;5.25;;
55672;SDS011;41554;45.366;20.400;2023-04-03T01:17:31;5.55;;;4.18;;
55672;SDS011;41554;45.366;20.400;2023-04-03T01:25:27;5.65;;;4.88;;
55672;SDS011;41554;45.366;20.400;2023-04-03T01:27:53;11.27;;;5.72;;
55672;SDS011;41554;45.366;20.400;2023-04-03T01:30:20;7.07;;;6.07;;
55672;SDS011;41554;45.366;20.400;2023-04-03T01:32:47;6.30;;;4.35;;
55672;SDS011;41554;45.366;20.400;2023-04-03T01:35:13;6.78;;;5.03;;
55672;SDS011;41554;45.366;20.400;2023-04-03T01:37:39;5.60;;;4.72;;
55672;SDS011;41554;45.366;20.400;2023-04-03T01:40:05;5.97;;;5.18;;
55672;SDS011;41554;45.366;20.400;2023-04-03T01:42:32;5.43;;;4.28;;
55672;SDS011;41554;45.366;20.400;2023-04-03T01:44:58;8.98;;;6.25;;
55672;SDS011;41554;45.366;20.400;2023-04-03T01:47:24;10.50;;;6.22;;
55672;SDS011;41554;45.366;20.400;2023-04-03T01:49:50;9.70;;;6.45;;
55672;SDS011;41554;45.366;20.400;2023-04-03T01:52:16;9.73;;;6.45;;
55672;SDS011;41554;45.366;20.400;2023-04-03T01:54:42;12.23;;;6.53;;
55672;SDS011;41554;45.366;20.400;2023-04-03T01:57:08;9.18;;;5.57;;
55672;SDS011;41554;45.366;20.400;2023-04-03T01:59:35;8.10;;;5.97;;
55672;SDS011;41554;45.366;20.400;2023-04-03T02:02:01;10.25;;;7.80;;
55672;SDS011;41554;45.366;20.400;2023-04-03T02:04:27;9.32;;;6.65;;
55672;SDS011;41554;45.366;20.400;2023-04-03T02:06:53;9.85;;;6.63;;
55672;SDS011;41554;45.366;20.400;2023-04-03T02:09:19;12.13;;;5.97;;
55672;SDS011;41554;45.366;20.400;2023-04-03T02:11:45;13.52;;;7.03;;
55672;SDS011;41554;45.366;20.400;2023-04-03T02:14:11;12.25;;;8.07;;
55672;SDS011;41554;45.366;20.400;2023-04-03T02:16:37;10.45;;;6.78;;
55672;SDS011;41554;45.366;20.400;2023-04-03T02:19:03;11.75;;;6.75;;
55672;SDS011;41554;45.366;20.400;2023-04-03T02:21:30;9.30;;;6.05;;
55672;SDS011;41554;45.366;20.400;2023-04-03T02:23:56;9.80;;;6.55;;
55672;SDS011;41554;45.366;20.400;2023-04-03T02:26:22;9.32;;;7.40;;
55672;SDS011;41554;45.366;20.400;2023-04-03T02:28:48;13.13;;;6.82;;
55672;SDS011;41554;45.366;20.400;2023-04-03T02:31:16;8.32;;;6.75;;
55672;SDS011;41554;45.366;20.400;2023-04-03T02:33:42;9.00;;;6.53;;
55672;SDS011;41554;45.366;20.400;2023-04-03T02:36:08;14.82;;;7.03;;
55672;SDS011;41554;45.366;20.400;2023-04-03T02:38:34;7.22;;;5.57;;
55672;SDS011;41554;45.366;20.400;2023-04-03T02:41:01;11.20;;;6.82;;
55672;SDS011;41554;45.366;20.400;2023-04-03T02:43:27;9.88;;;7.47;;
55672;SDS011;41554;45.366;20.400;2023-04-03T02:45:53;8.25;;;4.85;;
55672;SDS011;41554;45.366;20.400;2023-04-03T02:48:20;12.00;;;5.82;;
55672;SDS011;41554;45.366;20.400;2023-04-03T02:50:46;7.95;;;5.50;;
55672;SDS011;41554;45.366;20.400;2023-04-03T02:53:12;7.03;;;4.53;;
55672;SDS011;41554;45.366;20.400;2023-04-03T02:55:38;6.75;;;4.60;;
55672;SDS011;41554;45.366;20.400;2023-04-03T02:58:04;8.50;;;4.30;;
55672;SDS011;41554;45.366;20.400;2023-04-03T03:00:30;7.75;;;5.38;;
55672;SDS011;41554;45.366;20.400;2023-04-03T03:02:56;8.38;;;4.93;;
55672;SDS011;41554;45.366;20.400;2023-04-03T03:05:22;7.03;;;5.55;;
55672;SDS011;41554;45.366;20.400;2023-04-03T03:07:48;7.03;;;5.47;;
55672;SDS011;41554;45.366;20.400;2023-04-03T03:10:15;8.27;;;6.78;;
55672;SDS011;41554;45.366;20.400;2023-04-03T03:12:41;11.77;;;7.10;;
55672;SDS011;41554;45.366;20.400;2023-04-03T03:15:07;19.77;;;7.10;;
55672;SDS011;41554;45.366;20.400;2023-04-03T03:17:33;9.55;;;6.68;;
55672;SDS011;41554;45.366;20.400;2023-04-03T03:20:00;8.07;;;5.13;;
55672;SDS011;41554;45.366;20.400;2023-04-03T03:22:27;5.72;;;4.32;;
55672;SDS011;41554;45.366;20.400;2023-04-03T03:24:53;9.00;;;5.75;;
55672;SDS011;41554;45.366;20.400;2023-04-03T03:27:19;7.18;;;5.10;;
55672;SDS011;41554;45.366;20.400;2023-04-03T03:29:46;6.38;;;4.60;;
55672;SDS011;41554;45.366;20.400;2023-04-03T03:32:12;5.75;;;4.03;;
55672;SDS011;41554;45.366;20.400;2023-04-03T03:34:38;5.72;;;4.20;;
55672;SDS011;41554;45.366;20.400;2023-04-03T03:37:04;5.15;;;3.20;;
55672;SDS011;41554;45.366;20.400;2023-04-03T03:39:30;6.18;;;4.60;;
55672;SDS011;41554;45.366;20.400;2023-04-03T03:41:56;6.60;;;3.65;;
55672;SDS011;41554;45.366;20.400;2023-04-03T03:44:22;7.50;;;4.28;;
55672;SDS011;41554;45.366;20.400;2023-04-03T03:46:48;9.25;;;5.38;;
55672;SDS011;41554;45.366;20.400;2023-04-03T03:49:14;7.32;;;4.70;;
55672;SDS011;41554;45.366;20.400;2023-04-03T03:51:40;9.65;;;4.72;;
55672;SDS011;41554;45.366;20.400;2023-04-03T03:54:07;7.90;;;5.38;;
55672;SDS011;41554;45.366;20.400;2023-04-03T03:56:33;7.63;;;4.18;;
55672;SDS011;41554;45.366;20.400;2023-04-03T03:58:59;6.00;;;3.67;;
55672;SDS011;41554;45.366;20.400;2023-04-03T04:01:25;8.10;;;4.53;;
55672;SDS011;41554;45.366;20.400;2023-04-03T04:03:51;4.57;;;3.88;;
55672;SDS011;41554;45.366;20.400;2023-04-03T04:06:19;4.25;;;2.90;;
55672;SDS011;41554;45.366;20.400;2023-04-03T04:08:45;6.72;;;4.25;;
55672;SDS011;41554;45.366;20.400;2023-04-03T04:11:11;5.10;;;3.65;;
55672;SDS011;41554;45.366;20.400;2023-04-03T04:13:37;7.10;;;4.07;;
55672;SDS011;41554;45.366;20.400;2023-04-03T04:16:04;5.13;;;3.85;;
55672;SDS011;41554;45.366;20.400;2023-04-03T04:18:30;8.60;;;4.30;;
55672;SDS011;41554;45.366;20.400;2023-04-03T04:20:56;6.25;;;4.35;;
55672;SDS011;41554;45.366;20.400;2023-04-03T04:23:22;6.22;;;4.00;;
55672;SDS011;41554;45.366;20.400;2023-04-03T04:25:48;6.20;;;4.75;;
55672;SDS011;41554;45.366;20.400;2023-04-03T04:28:15;6.55;;;4.22;;
55672;SDS011;41554;45.366;20.400;2023-04-03T04:30:41;8.32;;;5.35;;
55672;SDS011;41554;45.366;20.400;2023-04-03T04:33:07;6.53;;;4.43;;
55672;SDS011;41554;45.366;20.400;2023-04-03T04:35:34;7.28;;;4.22;;
55672;SDS011;41554;45.366;20.400;2023-04-03T04:38:00;8.55;;;5.88;;
55672;SDS011;41554;45.366;20.400;2023-04-03T04:40:26;7.00;;;4.80;;
55672;SDS011;41554;45.366;20.400;2023-04-03T04:42:52;5.82;;;3.97;;
55672;SDS011;41554;45.366;20.400;2023-04-03T04:45:18;7.07;;;4.22;;
55672;SDS011;41554;45.366;20.400;2023-04-03T04:47:44;6.63;;;4.55;;
55672;SDS011;41554;45.366;20.400;2023-04-03T04:50:11;7.35;;;3.42;;
55672;SDS011;41554;45.366;20.400;2023-04-03T04:52:37;4.88;;;3.90;;
55672;SDS011;41554;45.366;20.400;2023-04-03T04:55:03;5.90;;;4.80;;
55672;SDS011;41554;45.366;20.400;2023-04-03T04:57:30;5.38;;;3.97;;
55672;SDS011;41554;45.366;20.400;2023-04-03T04:59:56;15.75;;;4.65;;
55672;SDS011;41554;45.366;20.400;2023-04-03T05:02:22;5.38;;;3.85;;
55672;SDS011;41554;45.366;20.400;2023-04-03T05:04:48;3.45;;;2.80;;
55672;SDS011;41554;45.366;20.400;2023-04-03T05:07:15;5.72;;;3.80;;
55672;SDS011;41554;45.366;20.400;2023-04-03T05:09:41;4.47;;;4.00;;
55672;SDS011;41554;45.366;20.400;2023-04-03T05:12:07;8.57;;;3.88;;
55672;SDS011;41554;45.366;20.400;2023-04-03T05:14:33;15.23;;;3.92;;
55672;SDS011;41554;45.366;20.400;2023-04-03T05:16:59;7.07;;;4.47;;
55672;SDS011;41554;45.366;20.400;2023-04-03T05:19:25;5.65;;;3.58;;
55672;SDS011;41554;45.366;20.400;2023-04-03T05:21:51;5.38;;;3.88;;
55672;SDS011;41554;45.366;20.400;2023-04-03T05:24:17;11.95;;;4.43;;
55672;SDS011;41554;45.366;20.400;2023-04-03T05:26:43;5.88;;;4.05;;
55672;SDS011;41554;45.366;20.400;2023-04-03T05:29:10;9.35;;;4.75;;
55672;SDS011;41554;45.366;20.400;2023-04-03T05:31:36;4.05;;;3.55;;
55672;SDS011;41554;45.366;20.400;2023-04-03T05:34:02;5.32;;;3.80;;
55672;SDS011;41554;45.366;20.400;2023-04-03T05:36:28;4.72;;;2.85;;
55672;SDS011;41554;45.366;20.400;2023-04-03T05:38:55;4.38;;;3.38;;
55672;SDS011;41554;45.366;20.400;2023-04-03T05:41:21;5.55;;;3.88;;
55672;SDS011;41554;45.366;20.400;2023-04-03T05:43:47;5.75;;;3.47;;
55672;SDS011;41554;45.366;20.400;2023-04-03T05:46:15;4.85;;;2.53;;
55672;SDS011;41554;45.366;20.400;2023-04-03T05:48:41;4.80;;;3.97;;
55672;SDS011;41554;45.366;20.400;2023-04-03T05:51:13;4.20;;;3.35;;
55672;SDS011;41554;45.366;20.400;2023-04-03T05:53:40;4.60;;;3.35;;
55672;SDS011;41554;45.366;20.400;2023-04-03T05:56:07;5.05;;;3.72;;
55672;SDS011;41554;45.366;20.400;2023-04-03T05:58:33;6.05;;;4.45;;
55672;SDS011;41554;45.366;20.400;2023-04-03T06:00:59;4.97;;;3.17;;
55672;SDS011;41554;45.366;20.400;2023-04-03T06:03:25;5.88;;;3.10;;
55672;SDS011;41554;45.366;20.400;2023-04-03T06:05:51;4.00;;;3.08;;
55672;SDS011;41554;45.366;20.400;2023-04-03T06:08:17;8.82;;;4.20;;
55672;SDS011;41554;45.366;20.400;2023-04-03T06:10:44;4.80;;;2.88;;
55672;SDS011;41554;45.366;20.400;2023-04-03T06:13:11;3.70;;;3.13;;
55672;SDS011;41554;45.366;20.400;2023-04-03T06:15:38;4.80;;;3.53;;
55672;SDS011;41554;45.366;20.400;2023-04-03T06:18:05;19.73;;;3.35;;
55672;SDS011;41554;45.366;20.400;2023-04-03T06:20:31;5.13;;;3.53;;
55672;SDS011;41554;45.366;20.400;2023-04-03T06:22:57;5.18;;;3.15;;
55672;SDS011;41554;45.366;20.400;2023-04-03T06:25:23;4.63;;;2.95;;
55672;SDS011;41554;45.366;20.400;2023-04-03T06:27:50;4.22;;;3.65;;
55672;SDS011;41554;45.366;20.400;2023-04-03T06:30:16;3.92;;;3.10;;
55672;SDS011;41554;45.366;20.400;2023-04-03T06:32:42;7.15;;;4.30;;
55672;SDS011;41554;45.366;20.400;2023-04-03T06:35:08;4.50;;;3.60;;
55672;SDS011;41554;45.366;20.400;2023-04-03T06:37:34;2.67;;;2.42;;
55672;SDS011;41554;45.366;20.400;2023-04-03T06:40:00;5.53;;;3.70;;
55672;SDS011;41554;45.366;20.400;2023-04-03T06:42:27;5.63;;;3.70;;
55672;SDS011;41554;45.366;20.400;2023-04-03T06:44:53;3.88;;;3.38;;
55672;SDS011;41554;45.366;20.400;2023-04-03T06:47:20;4.93;;;2.70;;
55672;SDS011;41554;45.366;20.400;2023-04-03T06:49:46;3.50;;;2.42;;
55672;SDS011;41554;45.366;20.400;2023-04-03T06:52:12;4.07;;;3.15;;
55672;SDS011;41554;45.366;20.400;2023-04-03T06:54:39;3.83;;;2.83;;
55672;SDS011;41554;45.366;20.400;2023-04-03T06:57:05;4.32;;;3.08;;
55672;SDS011;41554;45.366;20.400;2023-04-03T06:59:31;5.25;;;3.38;;
55672;SDS011;41554;45.366;20.400;2023-04-03T07:01:57;3.70;;;2.63;;
55672;SDS011;41554;45.366;20.400;2023-04-03T07:04:24;33.10;;;4.65;;
55672;SDS011;41554;45.366;20.400;2023-04-03T07:06:51;4.43;;;2.53;;
55672;SDS011;41554;45.366;20.400;2023-04-03T07:09:17;3.47;;;3.17;;
55672;SDS011;41554;45.366;20.400;2023-04-03T07:11:43;4.22;;;2.83;;
55672;SDS011;41554;45.366;20.400;2023-04-03T07:14:10;6.28;;;2.25;;
55672;SDS011;41554;45.366;20.400;2023-04-03T07:16:36;5.07;;;3.47;;
55672;SDS011;41554;45.366;20.400;2023-04-03T07:19:02;8.75;;;5.25;;
55672;SDS011;41554;45.366;20.400;2023-04-03T07:21:28;4.72;;;3.25;;
55672;SDS011;41554;45.366;20.400;2023-04-03T07:23:54;6.95;;;4.40;;
55672;SDS011;41554;45.366;20.400;2023-04-03T07:26:21;3.80;;;3.08;;
55672;SDS011;41554;45.366;20.400;2023-04-03T07:28:47;4.63;;;3.20;;
55672;SDS011;41554;45.366;20.400;2023-04-03T07:31:13;5.72;;;2.80;;
55672;SDS011;41554;45.366;20.400;2023-04-03T07:33:40;4.13;;;3.40;;
55672;SDS011;41554;45.366;20.400;2023-04-03T07:36:07;7.22;;;4.65;;
55672;SDS011;41554;45.366;20.400;2023-04-03T07:38:34;7.78;;;3.38;;
55672;SDS011;41554;45.366;20.400;2023-04-03T07:41:01;3.83;;;3.05;;
55672;SDS011;41554;45.366;20.400;2023-04-03T07:43:27;4.82;;;3.20;;
55672;SDS011;41554;45.366;20.400;2023-04-03T07:45:53;3.88;;;2.45;;
55672;SDS011;41554;45.366;20.400;2023-04-03T07:48:23;5.78;;;3.35;;
55672;SDS011;41554;45.366;20.400;2023-04-03T07:50:49;7.70;;;4.32;;
55672;SDS011;41554;45.366;20.400;2023-04-03T07:53:16;6.38;;;3.45;;
55672;SDS011;41554;45.366;20.400;2023-04-03T07:55:42;5.18;;;2.95;;
55672;SDS011;41554;45.366;20.400;2023-04-03T07:58:09;3.55;;;3.00;;
55672;SDS011;41554;45.366;20.400;2023-04-03T08:00:35;10.90;;;3.55;;
55672;SDS011;41554;45.366;20.400;2023-04-03T08:03:02;12.50;;;4.00;;
55672;SDS011;41554;45.366;20.400;2023-04-03T08:05:28;3.95;;;2.42;;
55672;SDS011;41554;45.366;20.400;2023-04-03T08:07:54;4.70;;;3.00;;
55672;SDS011;41554;45.366;20.400;2023-04-03T08:10:20;14.65;;;2.30;;
55672;SDS011;41554;45.366;20.400;2023-04-03T08:12:46;11.07;;;3.05;;
55672;SDS011;41554;45.366;20.400;2023-04-03T08:15:13;8.88;;;3.33;;
55672;SDS011;41554;45.366;20.400;2023-04-03T08:17:39;5.32;;;2.88;;
55672;SDS011;41554;45.366;20.400;2023-04-03T08:20:05;3.13;;;2.60;;
55672;SDS011;41554;45.366;20.400;2023-04-03T08:22:33;4.13;;;2.30;;
55672;SDS011;41554;45.366;20.400;2023-04-03T08:24:59;5.43;;;2.65;;
55672;SDS011;41554;45.366;20.400;2023-04-03T08:27:26;4.32;;;2.80;;
55672;SDS011;41554;45.366;20.400;2023-04-03T08:29:53;3.95;;;3.17;;
55672;SDS011;41554;45.366;20.400;2023-04-03T08:32:19;3.47;;;2.30;;
55672;SDS011;41554;45.366;20.400;2023-04-03T08:34:45;5.55;;;3.08;;
55672;SDS011;41554;45.366;20.400;2023-04-03T08:37:11;4.22;;;2.75;;
55672;SDS011;41554;45.366;20.400;2023-04-03T08:39:38;6.75;;;4.03;;
55672;SDS011;41554;45.366;20.400;2023-04-03T08:45:01;3.65;;;2.22;;
55672;SDS011;41554;45.366;20.400;2023-04-03T08:47:52;4.38;;;2.42;;
55672;SDS011;41554;45.366;20.400;2023-04-03T08:50:18;3.47;;;3.03;;
55672;SDS011;41554;45.366;20.400;2023-04-03T08:52:49;4.85;;;3.33;;
55672;SDS011;41554;45.366;20.400;2023-04-03T08:57:48;3.80;;;2.75;;
55672;SDS011;41554;45.366;20.400;2023-04-03T09:00:18;4.15;;;2.78;;
55672;SDS011;41554;45.366;20.400;2023-04-03T09:02:51;3.97;;;2.35;;
55672;SDS011;41554;45.366;20.400;2023-04-03T09:05:20;6.10;;;4.32;;
55672;SDS011;41554;45.366;20.400;2023-04-03T09:07:58;13.10;;;4.45;;
55672;SDS011;41554;45.366;20.400;2023-04-03T09:10:29;7.72;;;3.85;;
55672;SDS011;41554;45.366;20.400;2023-04-03T09:13:33;5.13;;;3.47;;
55672;SDS011;41554;45.366;20.400;2023-04-03T09:15:50;7.35;;;3.35;;
55672;SDS011;41554;45.366;20.400;2023-04-03T09:18:22;7.95;;;3.08;;
55672;SDS011;41554;45.366;20.400;2023-04-03T09:21:10;9.25;;;3.50;;
55672;SDS011;41554;45.366;20.400;2023-04-03T09:26:07;7.90;;;4.38;;
55672;SDS011;41554;45.366;20.400;2023-04-03T09:28:35;8.63;;;3.78;;
55672;SDS011;41554;45.366;20.400;2023-04-03T09:31:06;4.40;;;3.13;;
55672;SDS011;41554;45.366;20.400;2023-04-03T09:33:37;3.65;;;2.30;;
55672;SDS011;41554;45.366;20.400;2023-04-03T09:36:04;3.15;;;2.08;;
55672;SDS011;41554;45.366;20.400;2023-04-03T09:38:31;5.82;;;3.50;;
55672;SDS011;41554;45.366;20.400;2023-04-03T09:43:34;5.43;;;3.10;;
55672;SDS011;41554;45.366;20.400;2023-04-03T09:46:24;3.85;;;2.45;;
55672;SDS011;41554;45.366;20.400;2023-04-03T09:48:58;6.82;;;2.10;;
55672;SDS011;41554;45.366;20.400;2023-04-03T09:51:25;4.28;;;2.58;;
55672;SDS011;41554;45.366;20.400;2023-04-03T09:53:52;8.18;;;2.85;;
55672;SDS011;41554;45.366;20.400;2023-04-03T09:56:20;4.95;;;3.13;;
55672;SDS011;41554;45.366;20.400;2023-04-03T10:06:34;4.60;;;3.13;;
55672;SDS011;41554;45.366;20.400;2023-04-03T10:09:10;4.25;;;2.53;;
55672;SDS011;41554;45.366;20.400;2023-04-03T10:11:57;2.80;;;2.08;;
55672;SDS011;41554;45.366;20.400;2023-04-03T10:14:24;3.50;;;2.33;;
55672;SDS011;41554;45.366;20.400;2023-04-03T10:24:56;2.05;;;1.85;;
55672;SDS011;41554;45.366;20.400;2023-04-03T10:35:06;3.00;;;2.20;;
55672;SDS011;41554;45.366;20.400;2023-04-03T10:40:13;16.67;;;2.10;;
55672;SDS011;41554;45.366;20.400;2023-04-03T10:42:50;4.05;;;2.10;;
55672;SDS011;41554;45.366;20.400;2023-04-03T10:48:07;7.28;;;2.70;;
55672;SDS011;41554;45.366;20.400;2023-04-03T10:50:43;3.95;;;2.60;;
55672;SDS011;41554;45.366;20.400;2023-04-03T10:53:14;3.30;;;2.30;;
55672;SDS011;41554;45.366;20.400;2023-04-03T10:55:53;4.97;;;3.25;;
55672;SDS011;41554;45.366;20.400;2023-04-03T10:58:24;2.22;;;2.03;;
55672;SDS011;41554;45.366;20.400;2023-04-03T11:00:52;8.65;;;2.38;;
55672;SDS011;41554;45.366;20.400;2023-04-03T11:05:52;3.13;;;1.90;;
55672;SDS011;41554;45.366;20.400;2023-04-03T11:10:45;1.85;;;1.50;;
55672;SDS011;41554;45.366;20.400;2023-04-03T11:13:22;2.42;;;1.85;;
55672;SDS011;41554;45.366;20.400;2023-04-03T11:15:50;3.15;;;2.30;;
55672;SDS011;41554;45.366;20.400;2023-04-03T11:18:23;3.45;;;2.30;;
55672;SDS011;41554;45.366;20.400;2023-04-03T11:23:44;3.22;;;2.38;;
55672;SDS011;41554;45.366;20.400;2023-04-03T11:26:12;3.83;;;2.70;;
55672;SDS011;41554;45.366;20.400;2023-04-03T11:28:39;6.95;;;2.33;;
55672;SDS011;41554;45.366;20.400;2023-04-03T11:31:10;5.18;;;2.72;;
55672;SDS011;41554;45.366;20.400;2023-04-03T11:36:05;6.07;;;2.67;;
55672;SDS011;41554;45.366;20.400;2023-04-03T11:38:33;2.53;;;1.58;;
55672;SDS011;41554;45.366;20.400;2023-04-03T11:41:02;7.32;;;3.10;;
55672;SDS011;41554;45.366;20.400;2023-04-03T11:43:29;4.10;;;3.03;;
55672;SDS011;41554;45.366;20.400;2023-04-03T11:50:56;3.88;;;3.20;;
55672;SDS011;41554;45.366;20.400;2023-04-03T11:53:35;2.25;;;2.00;;
55672;SDS011;41554;45.366;20.400;2023-04-03T11:59:15;2.15;;;1.80;;
55672;SDS011;41554;45.366;20.400;2023-04-03T12:01:49;3.75;;;3.20;;
55672;SDS011;41554;45.366;20.400;2023-04-03T12:04:16;2.42;;;2.05;;
55672;SDS011;41554;45.366;20.400;2023-04-03T12:06:49;2.33;;;1.95;;
55672;SDS011;41554;45.366;20.400;2023-04-03T12:09:22;2.90;;;2.42;;
55672;SDS011;41554;45.366;20.400;2023-04-03T12:11:48;2.17;;;1.85;;
55672;SDS011;41554;45.366;20.400;2023-04-03T12:14:15;3.38;;;2.03;;
55672;SDS011;41554;45.366;20.400;2023-04-03T12:26:46;3.80;;;2.47;;
55672;SDS011;41554;45.366;20.400;2023-04-03T12:39:51;2.22;;;1.75;;
55672;SDS011;41554;45.366;20.400;2023-04-03T12:45:02;3.00;;;2.15;;
55672;SDS011;41554;45.366;20.400;2023-04-03T12:47:35;2.60;;;1.92;;
55672;SDS011;41554;45.366;20.400;2023-04-03T12:50:25;2.53;;;2.20;;
55672;SDS011;41554;45.366;20.400;2023-04-03T12:55:31;4.55;;;2.42;;
55672;SDS011;41554;45.366;20.400;2023-04-03T12:57:57;4.38;;;2.97;;
55672;SDS011;41554;45.366;20.400;2023-04-03T13:00:28;2.63;;;1.88;;
55672;SDS011;41554;45.366;20.400;2023-04-03T13:02:54;3.55;;;2.38;;
55672;SDS011;41554;45.366;20.400;2023-04-03T13:05:21;2.92;;;2.20;;
55672;SDS011;41554;45.366;20.400;2023-04-03T13:08:04;3.25;;;2.03;;
55672;SDS011;41554;45.366;20.400;2023-04-03T13:10:31;3.47;;;2.55;;
55672;SDS011;41554;45.366;20.400;2023-04-03T13:12:59;3.40;;;2.00;;
55672;SDS011;41554;45.366;20.400;2023-04-03T13:15:41;3.28;;;2.40;;
55672;SDS011;41554;45.366;20.400;2023-04-03T13:18:21;3.13;;;2.17;;
55672;SDS011;41554;45.366;20.400;2023-04-03T13:20:47;2.42;;;1.75;;
55672;SDS011;41554;45.366;20.400;2023-04-03T13:23:13;2.20;;;1.70;;
55672;SDS011;41554;45.366;20.400;2023-04-03T13:25:43;2.97;;;2.38;;
55672;SDS011;41554;45.366;20.400;2023-04-03T13:28:13;9.23;;;2.45;;
55672;SDS011;41554;45.366;20.400;2023-04-03T13:30:40;2.42;;;1.85;;
55672;SDS011;41554;45.366;20.400;2023-04-03T13:33:21;10.60;;;3.35;;
55672;SDS011;41554;45.366;20.400;2023-04-03T13:35:47;4.07;;;2.40;;
55672;SDS011;41554;45.366;20.400;2023-04-03T13:43:22;9.48;;;3.35;;
55672;SDS011;41554;45.366;20.400;2023-04-03T13:48:51;4.82;;;3.63;;
55672;SDS011;41554;45.366;20.400;2023-04-03T13:51:18;2.20;;;1.95;;
55672;SDS011;41554;45.366;20.400;2023-04-03T13:53:49;2.00;;;1.80;;
55672;SDS011;41554;45.366;20.400;2023-04-03T13:58:59;2.33;;;1.92;;
55672;SDS011;41554;45.366;20.400;2023-04-03T14:01:32;1.83;;;1.55;;
55672;SDS011;41554;45.366;20.400;2023-04-03T14:04:00;2.53;;;2.15;;
55672;SDS011;41554;45.366;20.400;2023-04-03T14:06:26;11.20;;;4.28;;
55672;SDS011;41554;45.366;20.400;2023-04-03T14:08:54;8.88;;;2.30;;
55672;SDS011;41554;45.366;20.400;2023-04-03T14:11:22;1.70;;;1.60;;
55672;SDS011;41554;45.366;20.400;2023-04-03T14:13:49;3.03;;;2.10;;
55672;SDS011;41554;45.366;20.400;2023-04-03T14:16:17;2.60;;;1.83;;
55672;SDS011;41554;45.366;20.400;2023-04-03T14:18:44;2.88;;;1.90;;
55672;SDS011;41554;45.366;20.400;2023-04-03T14:21:11;3.22;;;2.92;;
55672;SDS011;41554;45.366;20.400;2023-04-03T14:23:37;3.15;;;2.13;;
55672;SDS011;41554;45.366;20.400;2023-04-03T14:26:04;2.30;;;2.05;;
55672;SDS011;41554;45.366;20.400;2023-04-03T14:28:31;3.97;;;1.92;;
55672;SDS011;41554;45.366;20.400;2023-04-03T14:30:57;7.60;;;3.15;;
55672;SDS011;41554;45.366;20.400;2023-04-03T14:33:23;2.70;;;2.08;;
55672;SDS011;41554;45.366;20.400;2023-04-03T14:35:52;2.63;;;2.13;;
55672;SDS011;41554;45.366;20.400;2023-04-03T14:38:23;6.72;;;3.30;;
55672;SDS011;41554;45.366;20.400;2023-04-03T14:40:49;3.17;;;2.47;;
55672;SDS011;41554;45.366;20.400;2023-04-03T14:43:16;2.92;;;2.72;;
55672;SDS011;41554;45.366;20.400;2023-04-03T14:45:43;3.20;;;2.25;;
55672;SDS011;41554;45.366;20.400;2023-04-03T14:48:19;2.03;;;1.80;;
55672;SDS011;41554;45.366;20.400;2023-04-03T14:50:46;3.28;;;2.15;;
55672;SDS011;41554;45.366;20.400;2023-04-03T14:53:12;4.40;;;2.03;;
55672;SDS011;41554;45.366;20.400;2023-04-03T14:55:40;5.57;;;2.35;;
55672;SDS011;41554;45.366;20.400;2023-04-03T14:58:08;5.28;;;2.08;;
55672;SDS011;41554;45.366;20.400;2023-04-03T15:00:34;2.78;;;1.52;;
55672;SDS011;41554;45.366;20.400;2023-04-03T15:03:00;2.45;;;1.77;;
55672;SDS011;41554;45.366;20.400;2023-04-03T15:05:26;3.85;;;2.28;;
55672;SDS011;41554;45.366;20.400;2023-04-03T15:07:53;4.32;;;2.63;;
55672;SDS011;41554;45.366;20.400;2023-04-03T15:12:46;3.20;;;2.20;;
55672;SDS011;41554;45.366;20.400;2023-04-03T15:15:13;2.92;;;2.00;;
55672;SDS011;41554;45.366;20.400;2023-04-03T15:17:40;10.63;;;3.10;;
55672;SDS011;41554;45.366;20.400;2023-04-03T15:20:14;5.05;;;2.03;;
55672;SDS011;41554;45.366;20.400;2023-04-03T15:22:40;4.93;;;2.33;;
55672;SDS011;41554;45.366;20.400;2023-04-03T15:25:06;5.55;;;2.13;;
55672;SDS011;41554;45.366;20.400;2023-04-03T15:27:33;1.77;;;1.65;;
55672;SDS011;41554;45.366;20.400;2023-04-03T15:29:59;2.92;;;1.75;;
55672;SDS011;41554;45.366;20.400;2023-04-03T15:32:25;4.38;;;2.58;;
55672;SDS011;41554;45.366;20.400;2023-04-03T15:34:51;3.40;;;1.73;;
55672;SDS011;41554;45.366;20.400;2023-04-03T15:37:17;2.92;;;2.28;;
55672;SDS011;41554;45.366;20.400;2023-04-03T15:39:43;3.00;;;2.45;;
55672;SDS011;41554;45.366;20.400;2023-04-03T15:42:09;6.18;;;2.03;;
55672;SDS011;41554;45.366;20.400;2023-04-03T15:44:37;6.88;;;2.35;;
55672;SDS011;41554;45.366;20.400;2023-04-03T15:47:03;4.43;;;1.65;;
55672;SDS011;41554;45.366;20.400;2023-04-03T15:49:30;2.22;;;2.03;;
55672;SDS011;41554;45.366;20.400;2023-04-03T15:51:56;4.53;;;3.03;;
55672;SDS011;41554;45.366;20.400;2023-04-03T15:54:22;4.53;;;2.63;;
55672;SDS011;41554;45.366;20.400;2023-04-03T15:56:49;22.27;;;4.85;;
55672;SDS011;41554;45.366;20.400;2023-04-03T15:59:15;9.32;;;3.53;;
55672;SDS011;41554;45.366;20.400;2023-04-03T16:01:41;6.65;;;3.20;;
55672;SDS011;41554;45.366;20.400;2023-04-03T16:04:08;3.42;;;2.00;;
55672;SDS011;41554;45.366;20.400;2023-04-03T16:06:35;4.70;;;2.35;;
55672;SDS011;41554;45.366;20.400;2023-04-03T16:09:02;4.47;;;3.13;;
55672;SDS011;41554;45.366;20.400;2023-04-03T16:11:28;2.42;;;2.05;;
55672;SDS011;41554;45.366;20.400;2023-04-03T16:13:54;6.40;;;2.40;;
55672;SDS011;41554;45.366;20.400;2023-04-03T16:16:21;4.70;;;3.10;;
55672;SDS011;41554;45.366;20.400;2023-04-03T16:18:47;3.80;;;2.95;;
55672;SDS011;41554;45.366;20.400;2023-04-03T16:21:13;3.72;;;3.13;;